Terminal Aerodrome Forecast
Issued by NWS Wilmington, OH

Current Version | Previous Version | Text Only | Print | Product List | Glossary Off
Versions: 1 2 3 4 5 6 7 8 9 10 11 12 13

395
FTUS41 KILN 032333
TAFCMH
TAF
KCMH 032333Z 0400/0424 27016G25KT P6SM SKC
     FM040130 27013G23KT P6SM OVC025
      TEMPO 0402/0403 SCT025 OVC035
     FM040400 27012KT P6SM OVC015
     FM041600 27009KT P6SM BKN025
     FM042000 27011KT P6SM BKN050=

USA.gov is the U.S. government's official web portal to all federal, state and local government web resources and services.